Sagar Samrat — 9V3247 — position and weather

sailwx.info

Track history (hours):
 
Tides and Currents Weather Stations Pressure Air Temp Water Temp Dewpoint Dewpoint Depression Visibility Wind Speed Wind Dir Waves Ship Positions

Sagar Samrat

Last reported at 2018-Jan-26 10:38 UTC. Time now 2018-Feb-22 15:02 UTC.
Position N 50°58' W 009°05'.
Warning: this ship's position is 27 days out of date.

Length 225 m; draft 7.4 m.

Type: Cargo ship. MMSI: 566014000.

Date/timePositionNaut miles runAvg speedWind from/ knotsBaromVisibWave heightAir tempDewpointWater temp
2018-Jan-26 10:38N 50°58' W 009°05'210.5
2018-Jan-26 10:29N 50°58' W 009°02'1210.8
2018-Jan-26 09:25N 51°02' W 008°45'2411.0
2018-Jan-26 07:16N 51°08' W 008°08'511.0
2018-Jan-26 06:48N 51°09' W 008°00'310.7
2018-Jan-26 06:30N 51°10' W 007°55'611.1
2018-Jan-26 06:00N 51°11' W 007°47'9810.3
2018-Jan-25 20:33N 52°11' W 005°43'0 7.2
2018-Jan-25 20:30N 52°12' W 005°43'3 5.7
2018-Jan-25 20:00N 52°14' W 005°41'3 5.7
2018-Jan-25 19:30N 52°17' W 005°39'5 5.7
2018-Jan-25 18:38N 52°21' W 005°35'1 5.2
2018-Jan-25 18:26N 52°22' W 005°34'2 4.9
2018-Jan-25 17:58N 52°24' W 005°32'2 4.5
2018-Jan-25 17:30N 52°26' W 005°30'13 1.7
2018-Jan-25 09:58N 52°13' W 005°37'2 3.7
2018-Jan-25 09:29N 52°15' W 005°37'7 1.0
2018-Jan-25 03:09N 52°21' W 005°33'2 7.6
2018-Jan-25 02:55N 52°20' W 005°35'3 8.1
2018-Jan-25 02:30N 52°17' W 005°37'1 1.9
2018-Jan-25 02:00N 52°17' W 005°36'1 2.1
2018-Jan-25 01:30N 52°18' W 005°35'1 2.1
2018-Jan-25 01:00N 52°19' W 005°35'1 1.8
2018-Jan-25 00:30N 52°20' W 005°35'1 2.1
2018-Jan-24 23:58N 52°21' W 005°34'4 2.6
2018-Jan-24 22:20N 52°25' W 005°32'1 3.3
2018-Jan-24 22:00N 52°26' W 005°31'5 0.8
2018-Jan-24 16:28N 52°22' W 005°32'4 7.1
2018-Jan-24 15:52N 52°18' W 005°35'2 6.1
2018-Jan-24 15:28N 52°16' W 005°35'1 2.3
2018-Jan-24 15:00N 52°16' W 005°33'1 1.6
2018-Jan-24 14:29N 52°17' W 005°33'1 1.4
2018-Jan-24 14:00N 52°17' W 005°33'1 1.0
2018-Jan-24 13:30N 52°18' W 005°32'0 0.6
2018-Jan-24 12:58N 52°18' W 005°32'0 0.4
2018-Jan-24 12:30N 52°18' W 005°31'0 0.3
2018-Jan-24 12:00N 52°18' W 005°31'0 0.6
2018-Jan-24 11:18N 52°17' W 005°32'1 1.6
2018-Jan-24 10:57N 52°18' W 005°32'0 0.7
2018-Jan-24 10:30N 52°17' W 005°32'0 0.6
2018-Jan-24 09:59N 52°18' W 005°33'2 4.4
2018-Jan-24 09:30N 52°20' W 005°31'5 7.4
2018-Jan-24 08:50N 52°24' W 005°29'2 5.1
2018-Jan-24 08:25N 52°26' W 005°27'1 1.8
2018-Jan-24 08:00N 52°26' W 005°26'5 0.5
2018-Jan-23 22:25N 52°30' W 005°30'2 5.6
2018-Jan-23 21:59N 52°27' W 005°31'4 6.0
2018-Jan-23 21:23N 52°24' W 005°32'613.2
2018-Jan-23 20:54N 52°18' W 005°35'512.8
2018-Jan-23 20:29N 52°12' W 005°37'612.3
2018-Jan-23 19:59N 52°07' W 005°40'32 9.3
2018-Jan-23 16:36N 51°35' W 005°36'1 9.9
2018-Jan-23 16:30N 51°35' W 005°35'510.2
2018-Jan-23 16:00N 51°33' W 005°27'610.6
2018-Jan-23 15:27N 51°30' W 005°19'510.6
2018-Jan-23 14:57N 51°29' W 005°10'511.1
2018-Jan-23 14:30N 51°29' W 005°02'611.2
2018-Jan-23 14:00N 51°29' W 004°53'612.2
2018-Jan-23 13:30N 51°29' W 004°44'613.0
2018-Jan-23 13:00N 51°29' W 004°33'713.2
2018-Jan-23 12:30N 51°29' W 004°22'1113.3
2018-Jan-23 11:41N 51°29' W 004°05'312.7
2018-Jan-23 11:27N 51°29' W 004°00'9 0.8
2018-Jan-23 00:18N 51°34' W 003°48'0 0.0
2018-Jan-23 00:00N 51°34' W 003°48'0 0.0
2018-Jan-22 23:27N 51°34' W 003°48'17 0.4
2018-Jan-21 04:40N 51°28' W 004°14'0 1.9
2018-Jan-21 04:28N 51°28' W 004°13'4 2.4
2018-Jan-21 02:59N 51°28' W 004°07'2 3.3
2018-Jan-21 02:25N 51°27' W 004°04'2 4.3
2018-Jan-21 01:59N 51°27' W 004°01'7 2.0
2018-Jan-20 22:22N 51°28' W 004°12'1 1.5
2018-Jan-20 22:00N 51°28' W 004°13'4 3.6
2018-Jan-20 20:52N 51°27' W 004°07'2 2.1
2018-Jan-20 20:04N 51°27' W 004°04'1 1.3
2018-Jan-20 19:04N 51°27' W 004°02'0 1.0
2018-Jan-20 19:00N 51°27' W 004°02'7 2.4
2018-Jan-20 15:57N 51°28' W 004°14'2 3.3
2018-Jan-20 15:29N 51°29' W 004°16'1 1.7
2018-Jan-20 14:48N 51°29' W 004°18'0 1.2
2018-Jan-20 14:30N 51°29' W 004°18'1 0.7
2018-Jan-20 13:46N 51°29' W 004°19'1 0.5
2018-Jan-20 12:26N 51°29' W 004°18'1 1.7
2018-Jan-20 11:58N 51°29' W 004°17'4 2.2
2018-Jan-20 10:01N 51°28' W 004°10'0 1.7
2018-Jan-20 09:59N 51°28' W 004°10'2 0.7
2018-Jan-20 07:28N 51°27' W 004°12'0 0.2
2018-Jan-20 06:00N 51°27' W 004°12'5 1.8
2018-Jan-20 03:27N 51°27' W 004°04'1 2.7
2018-Jan-20 02:59N 51°27' W 004°02'6 2.3
2018-Jan-20 00:14N 51°28' W 004°12'0 1.4
2018-Jan-19 23:58N 51°28' W 004°13'4 5.3
2018-Jan-19 23:12N 51°27' W 004°06'1 5.5
2018-Jan-19 22:59N 51°27' W 004°04'5 2.8
2018-Jan-19 21:05N 51°28' W 004°13'0 3.7
2018-Jan-19 20:59N 51°28' W 004°13'6 2.7
2018-Jan-19 18:51N 51°27' W 004°04'0 0.6
2018-Jan-19 18:30N 51°27' W 004°04'0 0.2
2018-Jan-19 17:23N 51°27' W 004°04'0 0.4
2018-Jan-19 16:51N 51°27' W 004°04'1 0.9
2018-Jan-19 15:44N 51°27' W 004°02'0 0.7
2018-Jan-19 15:27N 51°27' W 004°02'5 1.6
2018-Jan-19 12:03N 51°27' W 004°11'0 3.0
2018-Jan-19 12:00N 51°27' W 004°11'3 1.8
2018-Jan-19 10:29N 51°27' W 004°07'2 0.4
2018-Jan-19 06:18N 51°27' W 004°04'1 0.4
2018-Jan-19 03:26N 51°27' W 004°02'6 1.7
2018-Jan-19 00:12N 51°27' W 004°11'1 3.7
2018-Jan-19 00:00N 51°28' W 004°12'1 1.5
2018-Jan-18 23:28N 51°27' W 004°13'1 0.1
2018-Jan-18 19:03N 51°27' W 004°13'0 1.2
2018-Jan-18 18:54N 51°27' W 004°13'0 1.2
2018-Jan-18 18:30N 51°28' W 004°12'4 1.0
2018-Jan-18 14:19N 51°28' W 004°05'1 2.1
2018-Jan-18 13:57N 51°27' W 004°06'1 1.6
2018-Jan-18 13:24N 51°27' W 004°08'14 5.1
2018-Jan-18 10:38N 51°16' W 004°22'1 8.7
2018-Jan-18 10:28N 51°15' W 004°23'4 8.8
2018-Jan-18 10:00N 51°11' W 004°27'4 8.8
2018-Jan-18 09:30N 51°08' W 004°31'4 8.7
2018-Jan-18 08:59N 51°04' W 004°36'4 9.0
2018-Jan-18 08:30N 51°02' W 004°41'4 8.7
2018-Jan-18 08:00N 50°59' W 004°46'510.2
2018-Jan-18 07:30N 50°55' W 004°52'510.5
2018-Jan-18 07:00N 50°52' W 004°58'510.6
2018-Jan-18 06:30N 50°48' W 005°04'510.7
2018-Jan-18 06:00N 50°45' W 005°10'510.9
2018-Jan-18 05:30N 50°41' W 005°16'511.0
2018-Jan-18 05:00N 50°37' W 005°23'611.0
2018-Jan-18 04:30N 50°34' W 005°30'611.1
2018-Jan-18 04:00N 50°31' W 005°37'611.3
2018-Jan-18 03:30N 50°27' W 005°44'611.0
2018-Jan-18 03:00N 50°24' W 005°51'4 7.9
2018-Jan-18 02:30N 50°21' W 005°55'2 4.9
2018-Jan-18 02:00N 50°19' W 005°53'3 5.8
2018-Jan-18 01:30N 50°16' W 005°55'3 5.4
2018-Jan-18 00:55N 50°13' W 005°54'6 6.5
2018-Jan-18 00:00N 50°07' W 005°53'0 6.0
2018-Jan-17 23:57N 50°07' W 005°53'  
Track history (hours):
 
Tides and Currents Weather Stations Pressure Air Temp Water Temp Dewpoint Dewpoint Depression Visibility Wind Speed Wind Dir Waves Ship Positions

Sagar Samrat

Last reported at 2018-Jan-26 10:38 UTC. Time now 2018-Feb-22 15:02 UTC.
Position N 50°58' W 009°05'.
Warning: this ship's position is 27 days out of date.

Length 225 m; draft 7.4 m.

Type: Cargo ship. MMSI: 566014000.

Date/timePositionNaut miles runAvg speedWind from/ knotsBaromVisibWave heightAir tempDewpointWater temp
2018-Jan-26 10:38N 50°58' W 009°05'210.5
2018-Jan-26 10:29N 50°58' W 009°02'1210.8
2018-Jan-26 09:25N 51°02' W 008°45'2411.0
2018-Jan-26 07:16N 51°08' W 008°08'511.0
2018-Jan-26 06:48N 51°09' W 008°00'310.7
2018-Jan-26 06:30N 51°10' W 007°55'611.1
2018-Jan-26 06:00N 51°11' W 007°47'9810.3
2018-Jan-25 20:33N 52°11' W 005°43'0 7.2
2018-Jan-25 20:30N 52°12' W 005°43'3 5.7
2018-Jan-25 20:00N 52°14' W 005°41'3 5.7
2018-Jan-25 19:30N 52°17' W 005°39'5 5.7
2018-Jan-25 18:38N 52°21' W 005°35'1 5.2
2018-Jan-25 18:26N 52°22' W 005°34'2 4.9
2018-Jan-25 17:58N 52°24' W 005°32'2 4.5
2018-Jan-25 17:30N 52°26' W 005°30'13 1.7
2018-Jan-25 09:58N 52°13' W 005°37'2 3.7
2018-Jan-25 09:29N 52°15' W 005°37'7 1.0
2018-Jan-25 03:09N 52°21' W 005°33'2 7.6
2018-Jan-25 02:55N 52°20' W 005°35'3 8.1
2018-Jan-25 02:30N 52°17' W 005°37'1 1.9
2018-Jan-25 02:00N 52°17' W 005°36'1 2.1
2018-Jan-25 01:30N 52°18' W 005°35'1 2.1
2018-Jan-25 01:00N 52°19' W 005°35'1 1.8
2018-Jan-25 00:30N 52°20' W 005°35'1 2.1
2018-Jan-24 23:58N 52°21' W 005°34'4 2.6
2018-Jan-24 22:20N 52°25' W 005°32'1 3.3
2018-Jan-24 22:00N 52°26' W 005°31'5 0.8
2018-Jan-24 16:28N 52°22' W 005°32'4 7.1
2018-Jan-24 15:52N 52°18' W 005°35'2 6.1
2018-Jan-24 15:28N 52°16' W 005°35'1 2.3
2018-Jan-24 15:00N 52°16' W 005°33'1 1.6
2018-Jan-24 14:29N 52°17' W 005°33'1 1.4
2018-Jan-24 14:00N 52°17' W 005°33'1 1.0
2018-Jan-24 13:30N 52°18' W 005°32'0 0.6
2018-Jan-24 12:58N 52°18' W 005°32'0 0.4
2018-Jan-24 12:30N 52°18' W 005°31'0 0.3
2018-Jan-24 12:00N 52°18' W 005°31'0 0.6
2018-Jan-24 11:18N 52°17' W 005°32'1 1.6
2018-Jan-24 10:57N 52°18' W 005°32'0 0.7
2018-Jan-24 10:30N 52°17' W 005°32'0 0.6
2018-Jan-24 09:59N 52°18' W 005°33'2 4.4
2018-Jan-24 09:30N 52°20' W 005°31'5 7.4
2018-Jan-24 08:50N 52°24' W 005°29'2 5.1
2018-Jan-24 08:25N 52°26' W 005°27'1 1.8
2018-Jan-24 08:00N 52°26' W 005°26'5 0.5
2018-Jan-23 22:25N 52°30' W 005°30'2 5.6
2018-Jan-23 21:59N 52°27' W 005°31'4 6.0
2018-Jan-23 21:23N 52°24' W 005°32'613.2
2018-Jan-23 20:54N 52°18' W 005°35'512.8
2018-Jan-23 20:29N 52°12' W 005°37'612.3
2018-Jan-23 19:59N 52°07' W 005°40'32 9.3
2018-Jan-23 16:36N 51°35' W 005°36'1 9.9
2018-Jan-23 16:30N 51°35' W 005°35'510.2
2018-Jan-23 16:00N 51°33' W 005°27'610.6
2018-Jan-23 15:27N 51°30' W 005°19'510.6
2018-Jan-23 14:57N 51°29' W 005°10'511.1
2018-Jan-23 14:30N 51°29' W 005°02'611.2
2018-Jan-23 14:00N 51°29' W 004°53'612.2
2018-Jan-23 13:30N 51°29' W 004°44'613.0
2018-Jan-23 13:00N 51°29' W 004°33'713.2
2018-Jan-23 12:30N 51°29' W 004°22'1113.3
2018-Jan-23 11:41N 51°29' W 004°05'312.7
2018-Jan-23 11:27N 51°29' W 004°00'9 0.8
2018-Jan-23 00:18N 51°34' W 003°48'0 0.0
2018-Jan-23 00:00N 51°34' W 003°48'0 0.0
2018-Jan-22 23:27N 51°34' W 003°48'17 0.4
2018-Jan-21 04:40N 51°28' W 004°14'0 1.9
2018-Jan-21 04:28N 51°28' W 004°13'4 2.4
2018-Jan-21 02:59N 51°28' W 004°07'2 3.3
2018-Jan-21 02:25N 51°27' W 004°04'2 4.3
2018-Jan-21 01:59N 51°27' W 004°01'7 2.0
2018-Jan-20 22:22N 51°28' W 004°12'1 1.5
2018-Jan-20 22:00N 51°28' W 004°13'4 3.6
2018-Jan-20 20:52N 51°27' W 004°07'2 2.1
2018-Jan-20 20:04N 51°27' W 004°04'1 1.3
2018-Jan-20 19:04N 51°27' W 004°02'0 1.0
2018-Jan-20 19:00N 51°27' W 004°02'7 2.4
2018-Jan-20 15:57N 51°28' W 004°14'2 3.3
2018-Jan-20 15:29N 51°29' W 004°16'1 1.7
2018-Jan-20 14:48N 51°29' W 004°18'0 1.2
2018-Jan-20 14:30N 51°29' W 004°18'1 0.7
2018-Jan-20 13:46N 51°29' W 004°19'1 0.5
2018-Jan-20 12:26N 51°29' W 004°18'1 1.7
2018-Jan-20 11:58N 51°29' W 004°17'4 2.2
2018-Jan-20 10:01N 51°28' W 004°10'0 1.7
2018-Jan-20 09:59N 51°28' W 004°10'2 0.7
2018-Jan-20 07:28N 51°27' W 004°12'0 0.2
2018-Jan-20 06:00N 51°27' W 004°12'5 1.8
2018-Jan-20 03:27N 51°27' W 004°04'1 2.7
2018-Jan-20 02:59N 51°27' W 004°02'6 2.3
2018-Jan-20 00:14N 51°28' W 004°12'0 1.4
2018-Jan-19 23:58N 51°28' W 004°13'4 5.3
2018-Jan-19 23:12N 51°27' W 004°06'1 5.5
2018-Jan-19 22:59N 51°27' W 004°04'5 2.8
2018-Jan-19 21:05N 51°28' W 004°13'0 3.7
2018-Jan-19 20:59N 51°28' W 004°13'6 2.7
2018-Jan-19 18:51N 51°27' W 004°04'0 0.6
2018-Jan-19 18:30N 51°27' W 004°04'0 0.2
2018-Jan-19 17:23N 51°27' W 004°04'0 0.4
2018-Jan-19 16:51N 51°27' W 004°04'1 0.9
2018-Jan-19 15:44N 51°27' W 004°02'0 0.7
2018-Jan-19 15:27N 51°27' W 004°02'5 1.6
2018-Jan-19 12:03N 51°27' W 004°11'0 3.0
2018-Jan-19 12:00N 51°27' W 004°11'3 1.8
2018-Jan-19 10:29N 51°27' W 004°07'2 0.4
2018-Jan-19 06:18N 51°27' W 004°04'1 0.4
2018-Jan-19 03:26N 51°27' W 004°02'6 1.7
2018-Jan-19 00:12N 51°27' W 004°11'1 3.7
2018-Jan-19 00:00N 51°28' W 004°12'1 1.5
2018-Jan-18 23:28N 51°27' W 004°13'1 0.1
2018-Jan-18 19:03N 51°27' W 004°13'0 1.2
2018-Jan-18 18:54N 51°27' W 004°13'0 1.2
2018-Jan-18 18:30N 51°28' W 004°12'4 1.0
2018-Jan-18 14:19N 51°28' W 004°05'1 2.1
2018-Jan-18 13:57N 51°27' W 004°06'1 1.6
2018-Jan-18 13:24N 51°27' W 004°08'14 5.1
2018-Jan-18 10:38N 51°16' W 004°22'1 8.7
2018-Jan-18 10:28N 51°15' W 004°23'4 8.8
2018-Jan-18 10:00N 51°11' W 004°27'4 8.8
2018-Jan-18 09:30N 51°08' W 004°31'4 8.7
2018-Jan-18 08:59N 51°04' W 004°36'4 9.0
2018-Jan-18 08:30N 51°02' W 004°41'4 8.7
2018-Jan-18 08:00N 50°59' W 004°46'510.2
2018-Jan-18 07:30N 50°55' W 004°52'510.5
2018-Jan-18 07:00N 50°52' W 004°58'510.6
2018-Jan-18 06:30N 50°48' W 005°04'510.7
2018-Jan-18 06:00N 50°45' W 005°10'510.9
2018-Jan-18 05:30N 50°41' W 005°16'511.0
2018-Jan-18 05:00N 50°37' W 005°23'611.0
2018-Jan-18 04:30N 50°34' W 005°30'611.1
2018-Jan-18 04:00N 50°31' W 005°37'611.3
2018-Jan-18 03:30N 50°27' W 005°44'611.0
2018-Jan-18 03:00N 50°24' W 005°51'4 7.9
2018-Jan-18 02:30N 50°21' W 005°55'2 4.9
2018-Jan-18 02:00N 50°19' W 005°53'3 5.8
2018-Jan-18 01:30N 50°16' W 005°55'3 5.4
2018-Jan-18 00:55N 50°13' W 005°54'6 6.5
2018-Jan-18 00:00N 50°07' W 005°53'0 6.0
2018-Jan-17 23:57N 50°07' W 005°53'  

Dump ship's entire track history